sensor_id;sensor_type;location;lat;lon;timestamp;temperature;humidity
16388;DHT22;8303;53.446;9.988;2023-08-08T04:41:25;12.80;99.90
16388;DHT22;8303;53.446;9.988;2023-08-08T04:43:52;12.70;81.70
16388;DHT22;8303;53.446;9.988;2023-08-08T04:46:19;12.80;13.20
16388;DHT22;8303;53.446;9.988;2023-08-08T04:48:46;12.80;99.90
16388;DHT22;8303;53.446;9.988;2023-08-08T04:51:12;12.90;1.00
16388;DHT22;8303;53.446;9.988;2023-08-08T04:53:39;12.90;1.00
16388;DHT22;8303;53.446;9.988;2023-08-08T04:56:06;12.90;1.00
16388;DHT22;8303;53.446;9.988;2023-08-08T04:58:34;13.00;1.00
16388;DHT22;8303;53.446;9.988;2023-08-08T05:01:01;13.00;99.90
16388;DHT22;8303;53.446;9.988;2023-08-08T05:03:28;13.10;99.90
16388;DHT22;8303;53.446;9.988;2023-08-08T05:05:55;13.20;1.00
16388;DHT22;8303;53.446;9.988;2023-08-08T05:08:22;13.20;1.00
16388;DHT22;8303;53.446;9.988;2023-08-08T05:10:48;13.30;1.00
16388;DHT22;8303;53.446;9.988;2023-08-08T05:13:15;13.50;99.90
16388;DHT22;8303;53.446;9.988;2023-08-08T05:15:43;13.60;99.90
16388;DHT22;8303;53.446;9.988;2023-08-08T05:18:10;13.70;1.00
16388;DHT22;8303;53.446;9.988;2023-08-08T05:20:37;13.70;1.00
16388;DHT22;8303;53.446;9.988;2023-08-08T05:23:04;13.80;1.00
16388;DHT22;8303;53.446;9.988;2023-08-08T05:25:31;13.90;1.00
16388;DHT22;8303;53.446;9.988;2023-08-08T05:27:58;13.90;1.00
16388;DHT22;8303;53.446;9.988;2023-08-08T05:30:24;13.80;99.90
16388;DHT22;8303;53.446;9.988;2023-08-08T05:32:53;13.80;99.90
16388;DHT22;8303;53.446;9.988;2023-08-08T05:35:19;13.80;99.90
16388;DHT22;8303;53.446;9.988;2023-08-08T05:37:46;14.00;99.90
16388;DHT22;8303;53.446;9.988;2023-08-08T05:40:13;14.00;78.80
16388;DHT22;8303;53.446;9.988;2023-08-08T05:42:40;14.10;1.00
16388;DHT22;8303;53.446;9.988;2023-08-08T05:45:08;14.10;99.90
16388;DHT22;8303;53.446;9.988;2023-08-08T05:47:35;14.20;99.90
16388;DHT22;8303;53.446;9.988;2023-08-08T05:50:03;14.10;99.90
16388;DHT22;8303;53.446;9.988;2023-08-08T05:52:30;14.10;99.90
16388;DHT22;8303;53.446;9.988;2023-08-08T05:54:57;14.10;99.90
16388;DHT22;8303;53.446;9.988;2023-08-08T05:57:25;14.10;1.00
16388;DHT22;8303;53.446;9.988;2023-08-08T05:59:52;14.20;1.00
16388;DHT22;8303;53.446;9.988;2023-08-08T06:02:19;14.20;1.00
16388;DHT22;8303;53.446;9.988;2023-08-08T06:04:46;14.20;1.00
16388;DHT22;8303;53.446;9.988;2023-08-08T06:07:14;14.20;1.00
16388;DHT22;8303;53.446;9.988;2023-08-08T06:09:41;14.30;1.00
16388;DHT22;8303;53.446;9.988;2023-08-08T06:12:08;14.40;1.00
16388;DHT22;8303;53.446;9.988;2023-08-08T06:14:35;14.50;99.90
16388;DHT22;8303;53.446;9.988;2023-08-08T06:17:02;14.60;99.90
16388;DHT22;8303;53.446;9.988;2023-08-08T06:19:29;14.60;47.00
16388;DHT22;8303;53.446;9.988;2023-08-08T06:21:56;14.70;1.00
16388;DHT22;8303;53.446;9.988;2023-08-08T06:24:24;14.70;1.00
16388;DHT22;8303;53.446;9.988;2023-08-08T06:26:51;14.60;1.00
16388;DHT22;8303;53.446;9.988;2023-08-08T06:29:18;14.50;1.00
16388;DHT22;8303;53.446;9.988;2023-08-08T06:31:45;14.40;1.00
16388;DHT22;8303;53.446;9.988;2023-08-08T06:34:12;14.40;1.00
16388;DHT22;8303;53.446;9.988;2023-08-08T06:36:39;14.40;1.00
16388;DHT22;8303;53.446;9.988;2023-08-08T06:39:06;14.50;1.00
16388;DHT22;8303;53.446;9.988;2023-08-08T06:41:34;14.80;99.90
16388;DHT22;8303;53.446;9.988;2023-08-08T06:44:01;14.90;53.50
16388;DHT22;8303;53.446;9.988;2023-08-08T06:46:27;14.90;99.90
16388;DHT22;8303;53.446;9.988;2023-08-08T06:48:55;14.90;99.90
16388;DHT22;8303;53.446;9.988;2023-08-08T06:51:24;14.80;99.90
16388;DHT22;8303;53.446;9.988;2023-08-08T06:53:51;14.70;99.90
16388;DHT22;8303;53.446;9.988;2023-08-08T06:56:18;15.00;99.90
16388;DHT22;8303;53.446;9.988;2023-08-08T06:58:46;15.10;1.00
16388;DHT22;8303;53.446;9.988;2023-08-08T07:01:13;15.30;1.00
16388;DHT22;8303;53.446;9.988;2023-08-08T07:03:40;15.40;1.00
16388;DHT22;8303;53.446;9.988;2023-08-08T07:06:09;15.50;1.00
16388;DHT22;8303;53.446;9.988;2023-08-08T07:08:36;15.70;1.00
16388;DHT22;8303;53.446;9.988;2023-08-08T07:11:05;16.00;99.90
16388;DHT22;8303;53.446;9.988;2023-08-08T07:13:32;16.10;99.90
16388;DHT22;8303;53.446;9.988;2023-08-08T07:16:00;16.10;1.00
16388;DHT22;8303;53.446;9.988;2023-08-08T07:18:27;16.10;1.00
16388;DHT22;8303;53.446;9.988;2023-08-08T07:20:54;16.10;1.00
16388;DHT22;8303;53.446;9.988;2023-08-08T07:23:22;16.20;1.00
16388;DHT22;8303;53.446;9.988;2023-08-08T07:25:49;16.40;1.00
16388;DHT22;8303;53.446;9.988;2023-08-08T07:28:16;16.50;99.90
16388;DHT22;8303;53.446;9.988;2023-08-08T07:30:43;16.50;1.00
16388;DHT22;8303;53.446;9.988;2023-08-08T07:33:11;16.40;1.00
16388;DHT22;8303;53.446;9.988;2023-08-08T07:35:39;16.20;99.90
16388;DHT22;8303;53.446;9.988;2023-08-08T07:38:06;16.20;99.90
16388;DHT22;8303;53.446;9.988;2023-08-08T07:40:33;16.40;99.90
16388;DHT22;8303;53.446;9.988;2023-08-08T07:42:59;16.50;99.90
16388;DHT22;8303;53.446;9.988;2023-08-08T07:45:26;16.50;99.90
16388;DHT22;8303;53.446;9.988;2023-08-08T07:47:53;16.60;99.90
16388;DHT22;8303;53.446;9.988;2023-08-08T07:50:21;16.70;99.90
16388;DHT22;8303;53.446;9.988;2023-08-08T07:52:48;17.00;99.90
16388;DHT22;8303;53.446;9.988;2023-08-08T07:55:15;17.30;91.20
16388;DHT22;8303;53.446;9.988;2023-08-08T07:57:42;17.40;94.90
16388;DHT22;8303;53.446;9.988;2023-08-08T08:00:10;17.40;99.90
16388;DHT22;8303;53.446;9.988;2023-08-08T08:02:38;17.20;1.00
16388;DHT22;8303;53.446;9.988;2023-08-08T08:05:06;17.10;99.90
16388;DHT22;8303;53.446;9.988;2023-08-08T08:07:35;17.10;99.90
16388;DHT22;8303;53.446;9.988;2023-08-08T08:10:02;17.30;99.90
16388;DHT22;8303;53.446;9.988;2023-08-08T08:12:29;17.10;8.60
16388;DHT22;8303;53.446;9.988;2023-08-08T08:14:56;17.10;99.90
16388;DHT22;8303;53.446;9.988;2023-08-08T08:17:23;17.00;99.90
16388;DHT22;8303;53.446;9.988;2023-08-08T08:19:51;17.00;1.00
16388;DHT22;8303;53.446;9.988;2023-08-08T08:22:17;17.00;99.90
16388;DHT22;8303;53.446;9.988;2023-08-08T08:24:46;16.90;1.00
16388;DHT22;8303;53.446;9.988;2023-08-08T08:27:13;16.80;1.00
16388;DHT22;8303;53.446;9.988;2023-08-08T08:29:40;16.80;99.90
16388;DHT22;8303;53.446;9.988;2023-08-08T08:32:06;16.70;1.00
16388;DHT22;8303;53.446;9.988;2023-08-08T08:34:33;16.50;1.00
16388;DHT22;8303;53.446;9.988;2023-08-08T08:37:00;16.50;1.00
16388;DHT22;8303;53.446;9.988;2023-08-08T08:39:27;16.60;1.00
16388;DHT22;8303;53.446;9.988;2023-08-08T08:41:59;16.70;1.00
16388;DHT22;8303;53.446;9.988;2023-08-08T08:44:30;16.70;1.00
16388;DHT22;8303;53.446;9.988;2023-08-08T08:46:59;16.80;99.90
16388;DHT22;8303;53.446;9.988;2023-08-08T08:49:30;16.80;99.90
16388;DHT22;8303;53.446;9.988;2023-08-08T08:51:57;16.90;99.90
16388;DHT22;8303;53.446;9.988;2023-08-08T08:54:27;17.00;1.00
16388;DHT22;8303;53.446;9.988;2023-08-08T08:56:55;17.10;1.00
16388;DHT22;8303;53.446;9.988;2023-08-08T08:59:23;17.10;99.90
16388;DHT22;8303;53.446;9.988;2023-08-08T09:01:50;17.10;1.00
16388;DHT22;8303;53.446;9.988;2023-08-08T09:04:19;16.90;99.50
16388;DHT22;8303;53.446;9.988;2023-08-08T09:06:47;16.80;99.90
16388;DHT22;8303;53.446;9.988;2023-08-08T09:09:14;16.80;1.00
16388;DHT22;8303;53.446;9.988;2023-08-08T09:11:42;16.70;1.00
16388;DHT22;8303;53.446;9.988;2023-08-08T09:14:16;17.00;1.00
16388;DHT22;8303;53.446;9.988;2023-08-08T09:16:43;17.10;1.00
16388;DHT22;8303;53.446;9.988;2023-08-08T09:19:10;17.20;1.00
16388;DHT22;8303;53.446;9.988;2023-08-08T09:21:37;17.20;99.90
16388;DHT22;8303;53.446;9.988;2023-08-08T09:24:04;17.40;99.90
16388;DHT22;8303;53.446;9.988;2023-08-08T09:26:32;17.10;99.90
16388;DHT22;8303;53.446;9.988;2023-08-08T09:29:00;16.90;1.00
16388;DHT22;8303;53.446;9.988;2023-08-08T09:31:29;16.70;1.00
16388;DHT22;8303;53.446;9.988;2023-08-08T09:33:57;16.70;1.00
16388;DHT22;8303;53.446;9.988;2023-08-08T09:36:24;16.60;1.00
16388;DHT22;8303;53.446;9.988;2023-08-08T09:38:52;16.60;1.00
16388;DHT22;8303;53.446;9.988;2023-08-08T09:41:19;16.70;1.00
16388;DHT22;8303;53.446;9.988;2023-08-08T09:43:47;16.70;1.00
16388;DHT22;8303;53.446;9.988;2023-08-08T09:46:14;16.80;1.00
16388;DHT22;8303;53.446;9.988;2023-08-08T09:48:43;16.90;1.00
16388;DHT22;8303;53.446;9.988;2023-08-08T09:51:10;16.80;1.00
16388;DHT22;8303;53.446;9.988;2023-08-08T09:53:38;16.70;99.90
16388;DHT22;8303;53.446;9.988;2023-08-08T09:56:06;16.30;99.90
16388;DHT22;8303;53.446;9.988;2023-08-08T09:58:33;16.10;99.90
16388;DHT22;8303;53.446;9.988;2023-08-08T10:01:00;15.90;1.00
16388;DHT22;8303;53.446;9.988;2023-08-08T10:03:28;15.80;99.90
16388;DHT22;8303;53.446;9.988;2023-08-08T10:05:56;15.80;99.90
16388;DHT22;8303;53.446;9.988;2023-08-08T10:08:23;15.90;1.00
16388;DHT22;8303;53.446;9.988;2023-08-08T10:10:51;15.80;1.00
16388;DHT22;8303;53.446;9.988;2023-08-08T10:13:21;15.60;1.60
16388;DHT22;8303;53.446;9.988;2023-08-08T10:15:48;15.50;99.90
16388;DHT22;8303;53.446;9.988;2023-08-08T10:18:15;15.20;1.00
16388;DHT22;8303;53.446;9.988;2023-08-08T10:20:43;15.10;82.20
16388;DHT22;8303;53.446;9.988;2023-08-08T10:23:11;15.10;1.00
16388;DHT22;8303;53.446;9.988;2023-08-08T10:25:44;14.90;99.90
16388;DHT22;8303;53.446;9.988;2023-08-08T10:28:13;15.00;1.00
16388;DHT22;8303;53.446;9.988;2023-08-08T10:30:44;15.10;99.90
16388;DHT22;8303;53.446;9.988;2023-08-08T10:33:18;15.30;1.00
16388;DHT22;8303;53.446;9.988;2023-08-08T10:35:54;15.30;99.90
16388;DHT22;8303;53.446;9.988;2023-08-08T10:38:25;15.40;99.90
16388;DHT22;8303;53.446;9.988;2023-08-08T10:40:56;15.50;99.90
16388;DHT22;8303;53.446;9.988;2023-08-08T10:43:27;15.70;97.00
16388;DHT22;8303;53.446;9.988;2023-08-08T10:45:57;16.00;99.90
16388;DHT22;8303;53.446;9.988;2023-08-08T10:48:25;16.50;1.00
16388;DHT22;8303;53.446;9.988;2023-08-08T10:50:54;17.00;1.00
16388;DHT22;8303;53.446;9.988;2023-08-08T10:53:25;17.20;1.00
16388;DHT22;8303;53.446;9.988;2023-08-08T10:55:57;17.10;46.50
16388;DHT22;8303;53.446;9.988;2023-08-08T10:58:35;16.90;99.90
16388;DHT22;8303;53.446;9.988;2023-08-08T11:01:03;17.10;1.00
16388;DHT22;8303;53.446;9.988;2023-08-08T11:03:35;17.00;1.00
16388;DHT22;8303;53.446;9.988;2023-08-08T11:06:02;16.70;1.00
16388;DHT22;8303;53.446;9.988;2023-08-08T11:08:32;16.50;1.00
16388;DHT22;8303;53.446;9.988;2023-08-08T11:10:59;16.50;1.00
16388;DHT22;8303;53.446;9.988;2023-08-08T11:13:26;16.20;28.20
16388;DHT22;8303;53.446;9.988;2023-08-08T11:15:53;15.80;1.00
16388;DHT22;8303;53.446;9.988;2023-08-08T11:18:20;15.30;1.00
16388;DHT22;8303;53.446;9.988;2023-08-08T11:20:48;14.90;99.90
16388;DHT22;8303;53.446;9.988;2023-08-08T11:23:16;14.60;99.90
16388;DHT22;8303;53.446;9.988;2023-08-08T11:25:45;14.40;1.00
16388;DHT22;8303;53.446;9.988;2023-08-08T11:28:12;14.20;99.90
16388;DHT22;8303;53.446;9.988;2023-08-08T11:30:41;14.00;99.90
16388;DHT22;8303;53.446;9.988;2023-08-08T11:33:09;13.80;1.00
16388;DHT22;8303;53.446;9.988;2023-08-08T11:35:36;13.70;99.90
16388;DHT22;8303;53.446;9.988;2023-08-08T11:38:03;13.50;99.90
16388;DHT22;8303;53.446;9.988;2023-08-08T11:40:31;13.30;99.90
16388;DHT22;8303;53.446;9.988;2023-08-08T11:43:00;13.20;1.00
16388;DHT22;8303;53.446;9.988;2023-08-08T11:45:27;13.10;43.50
16388;DHT22;8303;53.446;9.988;2023-08-08T11:47:55;12.90;80.30
16388;DHT22;8303;53.446;9.988;2023-08-08T11:50:23;12.80;99.90
16388;DHT22;8303;53.446;9.988;2023-08-08T11:52:52;12.80;1.00
16388;DHT22;8303;53.446;9.988;2023-08-08T11:55:19;12.70;1.00
16388;DHT22;8303;53.446;9.988;2023-08-08T11:57:48;12.80;1.00
16388;DHT22;8303;53.446;9.988;2023-08-08T12:00:17;13.10;1.00
16388;DHT22;8303;53.446;9.988;2023-08-08T12:02:44;13.70;1.00
16388;DHT22;8303;53.446;9.988;2023-08-08T12:05:13;14.30;99.90
16388;DHT22;8303;53.446;9.988;2023-08-08T12:07:42;15.00;1.00
16388;DHT22;8303;53.446;9.988;2023-08-08T12:10:15;15.30;7.30
16388;DHT22;8303;53.446;9.988;2023-08-08T12:12:42;15.30;99.90
16388;DHT22;8303;53.446;9.988;2023-08-08T12:15:10;15.20;1.00
16388;DHT22;8303;53.446;9.988;2023-08-08T12:17:39;15.20;1.00
16388;DHT22;8303;53.446;9.988;2023-08-08T12:20:07;15.10;99.90
16388;DHT22;8303;53.446;9.988;2023-08-08T12:22:36;15.00;99.90
16388;DHT22;8303;53.446;9.988;2023-08-08T12:25:03;15.00;1.00
16388;DHT22;8303;53.446;9.988;2023-08-08T12:27:30;15.00;1.00
16388;DHT22;8303;53.446;9.988;2023-08-08T12:29:57;14.90;1.00
16388;DHT22;8303;53.446;9.988;2023-08-08T12:32:26;14.70;1.00
16388;DHT22;8303;53.446;9.988;2023-08-08T12:34:55;14.70;93.40
16388;DHT22;8303;53.446;9.988;2023-08-08T12:37:23;14.50;4.60
16388;DHT22;8303;53.446;9.988;2023-08-08T12:39:50;14.80;1.00
16388;DHT22;8303;53.446;9.988;2023-08-08T12:42:17;15.40;1.00
16388;DHT22;8303;53.446;9.988;2023-08-08T12:44:44;15.70;1.00
16388;DHT22;8303;53.446;9.988;2023-08-08T12:47:12;16.10;99.90
16388;DHT22;8303;53.446;9.988;2023-08-08T12:49:39;16.20;1.00
16388;DHT22;8303;53.446;9.988;2023-08-08T12:52:07;16.50;1.00
16388;DHT22;8303;53.446;9.988;2023-08-08T12:54:34;16.70;1.00
16388;DHT22;8303;53.446;9.988;2023-08-08T12:57:02;16.90;99.90
16388;DHT22;8303;53.446;9.988;2023-08-08T12:59:29;17.20;1.00
16388;DHT22;8303;53.446;9.988;2023-08-08T13:01:56;17.40;1.00
16388;DHT22;8303;53.446;9.988;2023-08-08T13:04:23;17.20;1.00
16388;DHT22;8303;53.446;9.988;2023-08-08T13:06:50;17.50;1.00
16388;DHT22;8303;53.446;9.988;2023-08-08T13:09:19;17.50;1.00
16388;DHT22;8303;53.446;9.988;2023-08-08T13:11:45;17.60;91.70
16388;DHT22;8303;53.446;9.988;2023-08-08T13:14:12;17.70;1.00
16388;DHT22;8303;53.446;9.988;2023-08-08T13:16:39;18.30;1.00
16388;DHT22;8303;53.446;9.988;2023-08-08T13:19:06;18.50;99.90
16388;DHT22;8303;53.446;9.988;2023-08-08T13:21:33;18.50;99.90
16388;DHT22;8303;53.446;9.988;2023-08-08T13:24:00;18.40;1.00
16388;DHT22;8303;53.446;9.988;2023-08-08T13:26:28;18.10;99.90
16388;DHT22;8303;53.446;9.988;2023-08-08T13:28:55;17.40;1.00
16388;DHT22;8303;53.446;9.988;2023-08-08T13:31:22;16.80;1.00
16388;DHT22;8303;53.446;9.988;2023-08-08T13:33:49;16.10;1.00
16388;DHT22;8303;53.446;9.988;2023-08-08T13:36:16;15.80;99.90
16388;DHT22;8303;53.446;9.988;2023-08-08T13:38:43;15.50;1.00
16388;DHT22;8303;53.446;9.988;2023-08-08T13:41:10;15.60;99.90
16388;DHT22;8303;53.446;9.988;2023-08-08T13:43:38;15.50;99.90
16388;DHT22;8303;53.446;9.988;2023-08-08T13:46:05;15.50;99.90
16388;DHT22;8303;53.446;9.988;2023-08-08T13:48:35;15.90;1.00
16388;DHT22;8303;53.446;9.988;2023-08-08T13:51:02;16.10;35.50
16388;DHT22;8303;53.446;9.988;2023-08-08T13:53:29;16.90;1.00
16388;DHT22;8303;53.446;9.988;2023-08-08T13:55:56;18.00;1.00
16388;DHT22;8303;53.446;9.988;2023-08-08T13:58:23;18.50;99.90
16388;DHT22;8303;53.446;9.988;2023-08-08T14:00:51;17.90;1.00
16388;DHT22;8303;53.446;9.988;2023-08-08T14:03:18;17.30;1.00
16388;DHT22;8303;53.446;9.988;2023-08-08T14:05:45;16.60;21.50
16388;DHT22;8303;53.446;9.988;2023-08-08T14:08:12;15.70;1.00
16388;DHT22;8303;53.446;9.988;2023-08-08T14:10:39;14.90;13.00
16388;DHT22;8303;53.446;9.988;2023-08-08T14:13:06;14.40;1.00
16388;DHT22;8303;53.446;9.988;2023-08-08T14:15:33;14.20;1.00
16388;DHT22;8303;53.446;9.988;2023-08-08T14:18:01;14.10;1.00
16388;DHT22;8303;53.446;9.988;2023-08-08T14:20:28;14.40;99.90
16388;DHT22;8303;53.446;9.988;2023-08-08T14:22:55;14.40;1.00
16388;DHT22;8303;53.446;9.988;2023-08-08T14:25:22;14.40;99.90
16388;DHT22;8303;53.446;9.988;2023-08-08T14:27:49;14.50;1.00
16388;DHT22;8303;53.446;9.988;2023-08-08T14:30:16;14.80;1.00
16388;DHT22;8303;53.446;9.988;2023-08-08T14:32:43;14.70;1.00
16388;DHT22;8303;53.446;9.988;2023-08-08T14:35:11;14.70;1.00
16388;DHT22;8303;53.446;9.988;2023-08-08T14:37:38;14.60;99.90
16388;DHT22;8303;53.446;9.988;2023-08-08T14:40:06;14.60;99.90
16388;DHT22;8303;53.446;9.988;2023-08-08T14:42:34;14.50;1.00
16388;DHT22;8303;53.446;9.988;2023-08-08T14:45:01;14.60;99.90
16388;DHT22;8303;53.446;9.988;2023-08-08T14:47:28;14.80;1.00
16388;DHT22;8303;53.446;9.988;2023-08-08T14:49:55;15.10;1.00
16388;DHT22;8303;53.446;9.988;2023-08-08T14:52:23;15.10;99.90
16388;DHT22;8303;53.446;9.988;2023-08-08T14:54:51;15.00;1.00
16388;DHT22;8303;53.446;9.988;2023-08-08T14:57:18;15.10;1.00
16388;DHT22;8303;53.446;9.988;2023-08-08T14:59:45;15.60;99.90
16388;DHT22;8303;53.446;9.988;2023-08-08T15:02:12;16.40;99.90
16388;DHT22;8303;53.446;9.988;2023-08-08T15:04:39;16.60;1.00
16388;DHT22;8303;53.446;9.988;2023-08-08T15:07:06;16.60;1.00
16388;DHT22;8303;53.446;9.988;2023-08-08T15:09:34;17.00;99.90
16388;DHT22;8303;53.446;9.988;2023-08-08T15:12:03;18.10;1.00
16388;DHT22;8303;53.446;9.988;2023-08-08T15:14:30;19.00;99.90
16388;DHT22;8303;53.446;9.988;2023-08-08T15:16:57;20.30;1.00
16388;DHT22;8303;53.446;9.988;2023-08-08T15:19:24;21.60;1.00
16388;DHT22;8303;53.446;9.988;2023-08-08T15:21:52;21.00;1.00
16388;DHT22;8303;53.446;9.988;2023-08-08T15:24:19;19.40;99.90
16388;DHT22;8303;53.446;9.988;2023-08-08T15:26:47;20.10;1.50
16388;DHT22;8303;53.446;9.988;2023-08-08T15:29:14;21.70;1.00
16388;DHT22;8303;53.446;9.988;2023-08-08T15:31:41;22.60;1.00
16388;DHT22;8303;53.446;9.988;2023-08-08T15:34:07;19.80;10.10
16388;DHT22;8303;53.446;9.988;2023-08-08T15:36:34;18.10;99.90
16388;DHT22;8303;53.446;9.988;2023-08-08T15:39:01;17.10;1.00
16388;DHT22;8303;53.446;9.988;2023-08-08T15:41:28;16.80;1.00
16388;DHT22;8303;53.446;9.988;2023-08-08T15:43:56;16.60;1.00
16388;DHT22;8303;53.446;9.988;2023-08-08T15:46:23;16.40;1.00
16388;DHT22;8303;53.446;9.988;2023-08-08T15:48:50;16.10;1.00
16388;DHT22;8303;53.446;9.988;2023-08-08T15:51:17;15.80;1.00
16388;DHT22;8303;53.446;9.988;2023-08-08T15:53:44;15.70;1.00
16388;DHT22;8303;53.446;9.988;2023-08-08T15:56:11;15.50;13.40
16388;DHT22;8303;53.446;9.988;2023-08-08T15:58:38;15.30;99.90
16388;DHT22;8303;53.446;9.988;2023-08-08T16:01:07;15.10;99.90
16388;DHT22;8303;53.446;9.988;2023-08-08T16:03:34;14.90;1.00
16388;DHT22;8303;53.446;9.988;2023-08-08T16:06:00;14.50;1.00
16388;DHT22;8303;53.446;9.988;2023-08-08T16:08:28;14.20;99.90
16388;DHT22;8303;53.446;9.988;2023-08-08T16:10:55;14.00;1.00
16388;DHT22;8303;53.446;9.988;2023-08-08T16:13:22;13.80;61.40
16388;DHT22;8303;53.446;9.988;2023-08-08T16:15:49;13.60;61.70
16388;DHT22;8303;53.446;9.988;2023-08-08T16:18:17;13.40;99.90
16388;DHT22;8303;53.446;9.988;2023-08-08T16:20:44;13.30;99.90
16388;DHT22;8303;53.446;9.988;2023-08-08T16:23:11;13.30;99.90
16388;DHT22;8303;53.446;9.988;2023-08-08T16:25:37;13.40;1.00
16388;DHT22;8303;53.446;9.988;2023-08-08T16:28:05;13.50;1.00
16388;DHT22;8303;53.446;9.988;2023-08-08T16:30:31;13.60;99.90
16388;DHT22;8303;53.446;9.988;2023-08-08T16:32:58;13.70;99.90
16388;DHT22;8303;53.446;9.988;2023-08-08T16:35:27;13.70;1.00
16388;DHT22;8303;53.446;9.988;2023-08-08T16:37:54;13.70;1.00
16388;DHT22;8303;53.446;9.988;2023-08-08T16:40:21;13.70;1.00
16388;DHT22;8303;53.446;9.988;2023-08-08T16:42:48;13.80;1.00
16388;DHT22;8303;53.446;9.988;2023-08-08T16:45:15;13.80;1.00
16388;DHT22;8303;53.446;9.988;2023-08-08T16:47:42;13.80;1.00
16388;DHT22;8303;53.446;9.988;2023-08-08T16:50:09;13.80;1.00
16388;DHT22;8303;53.446;9.988;2023-08-08T16:52:37;13.70;91.10
16388;DHT22;8303;53.446;9.988;2023-08-08T16:55:05;13.60;99.90
16388;DHT22;8303;53.446;9.988;2023-08-08T16:57:32;13.60;99.90
16388;DHT22;8303;53.446;9.988;2023-08-08T16:59:59;13.60;1.00
16388;DHT22;8303;53.446;9.988;2023-08-08T17:02:27;13.50;1.00
16388;DHT22;8303;53.446;9.988;2023-08-08T17:04:53;13.50;1.00
16388;DHT22;8303;53.446;9.988;2023-08-08T17:07:20;13.60;1.00
16388;DHT22;8303;53.446;9.988;2023-08-08T17:09:50;13.60;99.90
16388;DHT22;8303;53.446;9.988;2023-08-08T17:12:17;13.60;99.90
16388;DHT22;8303;53.446;9.988;2023-08-08T17:14:45;13.60;99.90
16388;DHT22;8303;53.446;9.988;2023-08-08T17:17:12;13.60;99.90
16388;DHT22;8303;53.446;9.988;2023-08-08T17:19:39;13.50;1.00
16388;DHT22;8303;53.446;9.988;2023-08-08T17:22:06;13.50;99.90
16388;DHT22;8303;53.446;9.988;2023-08-08T17:24:33;13.50;1.00
16388;DHT22;8303;53.446;9.988;2023-08-08T17:27:01;13.50;1.00
16388;DHT22;8303;53.446;9.988;2023-08-08T17:29:28;13.50;1.00
16388;DHT22;8303;53.446;9.988;2023-08-08T17:31:55;13.60;99.90
16388;DHT22;8303;53.446;9.988;2023-08-08T17:34:22;13.70;99.90
16388;DHT22;8303;53.446;9.988;2023-08-08T17:36:49;13.70;99.90
16388;DHT22;8303;53.446;9.988;2023-08-08T17:39:16;13.70;49.30
16388;DHT22;8303;53.446;9.988;2023-08-08T17:41:43;13.80;99.90
16388;DHT22;8303;53.446;9.988;2023-08-08T17:44:12;13.90;1.00
16388;DHT22;8303;53.446;9.988;2023-08-08T17:46:39;13.90;99.90
16388;DHT22;8303;53.446;9.988;2023-08-08T17:49:06;14.00;99.90
16388;DHT22;8303;53.446;9.988;2023-08-08T17:51:33;14.10;99.90
16388;DHT22;8303;53.446;9.988;2023-08-08T17:54:00;14.20;99.90
16388;DHT22;8303;53.446;9.988;2023-08-08T17:56:26;14.40;99.90
16388;DHT22;8303;53.446;9.988;2023-08-08T17:58:53;14.50;99.90
16388;DHT22;8303;53.446;9.988;2023-08-08T18:01:22;14.60;1.00
16388;DHT22;8303;53.446;9.988;2023-08-08T18:03:49;14.70;1.00
16388;DHT22;8303;53.446;9.988;2023-08-08T18:06:16;14.60;1.00
16388;DHT22;8303;53.446;9.988;2023-08-08T18:08:42;14.60;1.00
16388;DHT22;8303;53.446;9.988;2023-08-08T18:11:09;14.70;1.00
16388;DHT22;8303;53.446;9.988;2023-08-08T18:13:37;14.80;1.00
16388;DHT22;8303;53.446;9.988;2023-08-08T18:16:05;14.90;1.00
16388;DHT22;8303;53.446;9.988;2023-08-08T18:18:33;14.90;1.00
16388;DHT22;8303;53.446;9.988;2023-08-08T18:21:00;14.90;1.00
16388;DHT22;8303;53.446;9.988;2023-08-08T18:23:27;14.90;1.00
16388;DHT22;8303;53.446;9.988;2023-08-08T18:25:54;14.90;1.00
16388;DHT22;8303;53.446;9.988;2023-08-08T18:28:21;14.80;1.00
16388;DHT22;8303;53.446;9.988;2023-08-08T18:30:48;14.70;1.00
16388;DHT22;8303;53.446;9.988;2023-08-08T18:33:15;14.60;1.00
16388;DHT22;8303;53.446;9.988;2023-08-08T18:35:43;14.50;1.00
16388;DHT22;8303;53.446;9.988;2023-08-08T18:38:11;14.50;1.00
16388;DHT22;8303;53.446;9.988;2023-08-08T18:40:38;14.40;99.90
16388;DHT22;8303;53.446;9.988;2023-08-08T18:43:04;14.50;99.90
16388;DHT22;8303;53.446;9.988;2023-08-08T18:45:31;14.40;96.20
16388;DHT22;8303;53.446;9.988;2023-08-08T18:47:58;14.30;99.90
16388;DHT22;8303;53.446;9.988;2023-08-08T18:50:25;14.30;99.90
16388;DHT22;8303;53.446;9.988;2023-08-08T18:52:53;14.30;25.40
16388;DHT22;8303;53.446;9.988;2023-08-08T18:55:20;14.30;1.00
16388;DHT22;8303;53.446;9.988;2023-08-08T18:57:48;14.40;1.00
16388;DHT22;8303;53.446;9.988;2023-08-08T19:00:15;14.30;1.00
16388;DHT22;8303;53.446;9.988;2023-08-08T19:02:42;14.20;99.90
16388;DHT22;8303;53.446;9.988;2023-08-08T19:05:09;14.10;99.90
16388;DHT22;8303;53.446;9.988;2023-08-08T19:07:36;14.10;99.90
16388;DHT22;8303;53.446;9.988;2023-08-08T19:10:05;14.10;99.90
16388;DHT22;8303;53.446;9.988;2023-08-08T19:12:33;14.00;1.00
16388;DHT22;8303;53.446;9.988;2023-08-08T19:15:00;14.00;1.00
16388;DHT22;8303;53.446;9.988;2023-08-08T19:17:26;13.90;1.00
16388;DHT22;8303;53.446;9.988;2023-08-08T19:19:53;13.80;1.00
16388;DHT22;8303;53.446;9.988;2023-08-08T19:22:20;13.80;1.00
16388;DHT22;8303;53.446;9.988;2023-08-08T19:24:47;13.80;1.00
16388;DHT22;8303;53.446;9.988;2023-08-08T19:27:15;13.70;1.00
16388;DHT22;8303;53.446;9.988;2023-08-08T19:29:42;13.70;1.00
16388;DHT22;8303;53.446;9.988;2023-08-08T19:32:09;13.70;1.00
16388;DHT22;8303;53.446;9.988;2023-08-08T19:34:36;13.70;1.00
16388;DHT22;8303;53.446;9.988;2023-08-08T19:37:03;13.70;1.00
16388;DHT22;8303;53.446;9.988;2023-08-08T19:39:30;13.80;1.00
16388;DHT22;8303;53.446;9.988;2023-08-08T19:41:58;13.70;1.00
16388;DHT22;8303;53.446;9.988;2023-08-08T19:44:26;13.70;1.00
16388;DHT22;8303;53.446;9.988;2023-08-08T19:46:54;13.70;1.00
16388;DHT22;8303;53.446;9.988;2023-08-08T19:49:21;13.70;1.00
16388;DHT22;8303;53.446;9.988;2023-08-08T19:51:48;13.70;1.00
16388;DHT22;8303;53.446;9.988;2023-08-08T19:54:15;13.70;1.00
16388;DHT22;8303;53.446;9.988;2023-08-08T19:56:43;13.80;1.00
16388;DHT22;8303;53.446;9.988;2023-08-08T19:59:10;13.80;1.00
16388;DHT22;8303;53.446;9.988;2023-08-08T20:01:38;13.70;1.00
16388;DHT22;8303;53.446;9.988;2023-08-08T20:04:05;13.80;1.00
16388;DHT22;8303;53.446;9.988;2023-08-08T20:06:32;13.80;1.00
16388;DHT22;8303;53.446;9.988;2023-08-08T20:08:59;13.90;1.00
16388;DHT22;8303;53.446;9.988;2023-08-08T20:11:27;13.90;1.00
16388;DHT22;8303;53.446;9.988;2023-08-08T20:13:53;13.90;99.90
16388;DHT22;8303;53.446;9.988;2023-08-08T20:16:21;13.90;99.90
16388;DHT22;8303;53.446;9.988;2023-08-08T20:18:51;13.90;99.90
16388;DHT22;8303;53.446;9.988;2023-08-08T20:21:17;13.80;1.00
16388;DHT22;8303;53.446;9.988;2023-08-08T20:23:44;13.70;99.90
16388;DHT22;8303;53.446;9.988;2023-08-08T20:26:11;13.60;99.90
16388;DHT22;8303;53.446;9.988;2023-08-08T20:28:38;13.50;1.00
